sensor_id;sensor_type;location;lat;lon;timestamp;P1;durP1;ratioP1;P2;durP2;ratioP2
16294;SDS011;8255;49.560;8.244;2023-04-24T00:00:46;3.28;;;3.03;;
16294;SDS011;8255;49.560;8.244;2023-04-24T00:03:12;1.90;;;1.70;;
16294;SDS011;8255;49.560;8.244;2023-04-24T00:05:39;1.95;;;1.60;;
16294;SDS011;8255;49.560;8.244;2023-04-24T00:08:06;2.60;;;1.30;;
16294;SDS011;8255;49.560;8.244;2023-04-24T00:10:34;1.52;;;1.20;;
16294;SDS011;8255;49.560;8.244;2023-04-24T00:13:00;1.20;;;1.20;;
16294;SDS011;8255;49.560;8.244;2023-04-24T00:15:27;1.30;;;1.30;;
16294;SDS011;8255;49.560;8.244;2023-04-24T00:17:53;1.95;;;1.30;;
16294;SDS011;8255;49.560;8.244;2023-04-24T00:20:20;1.40;;;1.30;;
16294;SDS011;8255;49.560;8.244;2023-04-24T00:22:46;3.90;;;1.88;;
16294;SDS011;8255;49.560;8.244;2023-04-24T00:25:12;1.20;;;1.20;;
16294;SDS011;8255;49.560;8.244;2023-04-24T00:27:40;1.60;;;1.50;;
16294;SDS011;8255;49.560;8.244;2023-04-24T00:30:07;1.40;;;1.38;;
16294;SDS011;8255;49.560;8.244;2023-04-24T00:32:33;1.42;;;1.40;;
16294;SDS011;8255;49.560;8.244;2023-04-24T00:35:00;1.33;;;1.23;;
16294;SDS011;8255;49.560;8.244;2023-04-24T00:37:26;1.27;;;1.23;;
16294;SDS011;8255;49.560;8.244;2023-04-24T00:39:53;3.28;;;1.40;;
16294;SDS011;8255;49.560;8.244;2023-04-24T00:42:20;1.45;;;1.35;;
16294;SDS011;8255;49.560;8.244;2023-04-24T00:44:48;2.35;;;1.50;;
16294;SDS011;8255;49.560;8.244;2023-04-24T00:47:14;1.58;;;1.27;;
16294;SDS011;8255;49.560;8.244;2023-04-24T00:49:41;2.40;;;1.50;;
16294;SDS011;8255;49.560;8.244;2023-04-24T00:52:07;1.60;;;1.20;;
16294;SDS011;8255;49.560;8.244;2023-04-24T00:54:34;1.30;;;1.25;;
16294;SDS011;8255;49.560;8.244;2023-04-24T00:57:00;2.35;;;1.40;;
16294;SDS011;8255;49.560;8.244;2023-04-24T00:59:27;1.48;;;1.35;;
16294;SDS011;8255;49.560;8.244;2023-04-24T01:01:55;4.78;;;1.67;;
16294;SDS011;8255;49.560;8.244;2023-04-24T01:04:22;1.52;;;1.35;;
16294;SDS011;8255;49.560;8.244;2023-04-24T01:06:48;2.03;;;1.33;;
16294;SDS011;8255;49.560;8.244;2023-04-24T01:09:16;1.30;;;1.20;;
16294;SDS011;8255;49.560;8.244;2023-04-24T01:11:42;2.40;;;1.60;;
16294;SDS011;8255;49.560;8.244;2023-04-24T01:14:10;1.20;;;1.20;;
16294;SDS011;8255;49.560;8.244;2023-04-24T01:16:37;2.85;;;1.33;;
16294;SDS011;8255;49.560;8.244;2023-04-24T01:19:05;1.75;;;1.25;;
16294;SDS011;8255;49.560;8.244;2023-04-24T01:21:32;1.10;;;1.10;;
16294;SDS011;8255;49.560;8.244;2023-04-24T01:24:01;2.05;;;1.38;;
16294;SDS011;8255;49.560;8.244;2023-04-24T01:26:27;1.30;;;1.30;;
16294;SDS011;8255;49.560;8.244;2023-04-24T01:28:54;1.40;;;1.30;;
16294;SDS011;8255;49.560;8.244;2023-04-24T01:31:20;0.88;;;0.88;;
16294;SDS011;8255;49.560;8.244;2023-04-24T01:33:46;1.30;;;1.20;;
16294;SDS011;8255;49.560;8.244;2023-04-24T01:36:13;1.63;;;1.27;;
16294;SDS011;8255;49.560;8.244;2023-04-24T01:38:40;1.23;;;1.23;;
16294;SDS011;8255;49.560;8.244;2023-04-24T01:41:07;2.17;;;1.05;;
16294;SDS011;8255;49.560;8.244;2023-04-24T01:43:34;1.33;;;1.23;;
16294;SDS011;8255;49.560;8.244;2023-04-24T01:46:00;1.60;;;1.50;;
16294;SDS011;8255;49.560;8.244;2023-04-24T01:48:27;2.08;;;1.00;;
16294;SDS011;8255;49.560;8.244;2023-04-24T01:50:53;1.98;;;1.20;;
16294;SDS011;8255;49.560;8.244;2023-04-24T01:53:20;1.20;;;1.10;;
16294;SDS011;8255;49.560;8.244;2023-04-24T01:55:46;1.35;;;1.25;;
16294;SDS011;8255;49.560;8.244;2023-04-24T01:58:14;1.25;;;1.20;;
16294;SDS011;8255;49.560;8.244;2023-04-24T02:00:41;1.33;;;1.17;;
16294;SDS011;8255;49.560;8.244;2023-04-24T02:03:07;2.67;;;1.30;;
16294;SDS011;8255;49.560;8.244;2023-04-24T02:05:33;2.85;;;1.40;;
16294;SDS011;8255;49.560;8.244;2023-04-24T02:08:02;1.55;;;1.20;;
16294;SDS011;8255;49.560;8.244;2023-04-24T02:10:28;1.75;;;1.40;;
16294;SDS011;8255;49.560;8.244;2023-04-24T02:12:54;1.75;;;1.40;;
16294;SDS011;8255;49.560;8.244;2023-04-24T02:15:24;2.25;;;1.40;;
16294;SDS011;8255;49.560;8.244;2023-04-24T02:17:51;1.10;;;1.10;;
16294;SDS011;8255;49.560;8.244;2023-04-24T02:20:17;1.40;;;1.30;;
16294;SDS011;8255;49.560;8.244;2023-04-24T02:22:43;1.42;;;1.38;;
16294;SDS011;8255;49.560;8.244;2023-04-24T02:25:10;1.10;;;1.10;;
16294;SDS011;8255;49.560;8.244;2023-04-24T02:27:36;1.05;;;1.00;;
16294;SDS011;8255;49.560;8.244;2023-04-24T02:30:05;1.55;;;1.20;;
16294;SDS011;8255;49.560;8.244;2023-04-24T02:32:33;1.00;;;1.00;;
16294;SDS011;8255;49.560;8.244;2023-04-24T02:35:00;1.13;;;1.10;;
16294;SDS011;8255;49.560;8.244;2023-04-24T02:37:27;1.00;;;1.00;;
16294;SDS011;8255;49.560;8.244;2023-04-24T02:39:53;1.25;;;1.10;;
16294;SDS011;8255;49.560;8.244;2023-04-24T02:42:19;1.42;;;1.42;;
16294;SDS011;8255;49.560;8.244;2023-04-24T02:44:46;2.30;;;2.20;;
16294;SDS011;8255;49.560;8.244;2023-04-24T02:47:12;3.33;;;3.03;;
16294;SDS011;8255;49.560;8.244;2023-04-24T02:49:40;3.42;;;1.75;;
16294;SDS011;8255;49.560;8.244;2023-04-24T02:52:06;1.55;;;1.52;;
16294;SDS011;8255;49.560;8.244;2023-04-24T02:54:33;1.80;;;1.70;;
16294;SDS011;8255;49.560;8.244;2023-04-24T02:56:59;1.60;;;1.60;;
16294;SDS011;8255;49.560;8.244;2023-04-24T02:59:26;1.77;;;1.77;;
16294;SDS011;8255;49.560;8.244;2023-04-24T03:01:54;2.03;;;1.92;;
16294;SDS011;8255;49.560;8.244;2023-04-24T03:04:20;2.03;;;1.92;;
16294;SDS011;8255;49.560;8.244;2023-04-24T03:06:48;2.17;;;2.00;;
16294;SDS011;8255;49.560;8.244;2023-04-24T03:09:18;2.05;;;1.95;;
16294;SDS011;8255;49.560;8.244;2023-04-24T03:11:46;2.40;;;2.20;;
16294;SDS011;8255;49.560;8.244;2023-04-24T03:14:13;2.10;;;2.00;;
16294;SDS011;8255;49.560;8.244;2023-04-24T03:16:40;2.10;;;2.00;;
16294;SDS011;8255;49.560;8.244;2023-04-24T03:19:06;2.22;;;2.13;;
16294;SDS011;8255;49.560;8.244;2023-04-24T03:21:40;2.10;;;2.00;;
16294;SDS011;8255;49.560;8.244;2023-04-24T03:24:08;1.95;;;1.95;;
16294;SDS011;8255;49.560;8.244;2023-04-24T03:26:35;2.22;;;2.13;;
16294;SDS011;8255;49.560;8.244;2023-04-24T03:29:16;2.28;;;2.17;;
16294;SDS011;8255;49.560;8.244;2023-04-24T03:31:43;2.65;;;2.25;;
16294;SDS011;8255;49.560;8.244;2023-04-24T03:34:10;2.33;;;2.10;;
16294;SDS011;8255;49.560;8.244;2023-04-24T03:36:36;2.67;;;2.58;;
16294;SDS011;8255;49.560;8.244;2023-04-24T03:39:05;5.40;;;3.90;;
16294;SDS011;8255;49.560;8.244;2023-04-24T03:41:34;8.77;;;3.45;;
16294;SDS011;8255;49.560;8.244;2023-04-24T03:44:14;2.17;;;2.08;;
16294;SDS011;8255;49.560;8.244;2023-04-24T03:46:41;1.83;;;1.80;;
16294;SDS011;8255;49.560;8.244;2023-04-24T03:49:08;2.45;;;2.35;;
16294;SDS011;8255;49.560;8.244;2023-04-24T03:51:38;2.25;;;2.15;;
16294;SDS011;8255;49.560;8.244;2023-04-24T03:54:13;2.08;;;1.98;;
16294;SDS011;8255;49.560;8.244;2023-04-24T03:56:41;2.40;;;2.30;;
16294;SDS011;8255;49.560;8.244;2023-04-24T03:59:08;2.65;;;2.40;;
16294;SDS011;8255;49.560;8.244;2023-04-24T04:01:35;2.22;;;2.10;;
16294;SDS011;8255;49.560;8.244;2023-04-24T04:04:07;2.50;;;2.40;;
16294;SDS011;8255;49.560;8.244;2023-04-24T04:06:35;2.65;;;2.50;;
16294;SDS011;8255;49.560;8.244;2023-04-24T04:09:03;2.40;;;2.30;;
16294;SDS011;8255;49.560;8.244;2023-04-24T04:11:30;2.90;;;2.80;;
16294;SDS011;8255;49.560;8.244;2023-04-24T04:13:57;2.70;;;2.60;;
16294;SDS011;8255;49.560;8.244;2023-04-24T04:16:24;3.50;;;3.30;;
16294;SDS011;8255;49.560;8.244;2023-04-24T04:18:56;3.08;;;2.88;;
16294;SDS011;8255;49.560;8.244;2023-04-24T04:21:24;11.02;;;10.02;;
16294;SDS011;8255;49.560;8.244;2023-04-24T04:23:56;6.30;;;5.75;;
16294;SDS011;8255;49.560;8.244;2023-04-24T04:26:29;8.27;;;7.03;;
16294;SDS011;8255;49.560;8.244;2023-04-24T04:29:03;3.67;;;3.47;;
16294;SDS011;8255;49.560;8.244;2023-04-24T04:31:30;3.35;;;3.15;;
16294;SDS011;8255;49.560;8.244;2023-04-24T04:34:01;3.70;;;3.50;;
16294;SDS011;8255;49.560;8.244;2023-04-24T04:36:29;3.90;;;3.60;;
16294;SDS011;8255;49.560;8.244;2023-04-24T04:39:03;3.83;;;3.53;;
16294;SDS011;8255;49.560;8.244;2023-04-24T04:41:54;3.00;;;2.80;;
16294;SDS011;8255;49.560;8.244;2023-04-24T04:44:26;3.90;;;3.65;;
16294;SDS011;8255;49.560;8.244;2023-04-24T04:46:54;3.38;;;3.10;;
16294;SDS011;8255;49.560;8.244;2023-04-24T04:49:30;3.20;;;3.00;;
16294;SDS011;8255;49.560;8.244;2023-04-24T04:51:56;3.47;;;3.28;;
16294;SDS011;8255;49.560;8.244;2023-04-24T04:54:25;4.32;;;3.53;;
16294;SDS011;8255;49.560;8.244;2023-04-24T04:56:51;4.68;;;3.65;;
16294;SDS011;8255;49.560;8.244;2023-04-24T04:59:18;3.25;;;3.08;;
16294;SDS011;8255;49.560;8.244;2023-04-24T05:01:48;3.50;;;3.30;;
16294;SDS011;8255;49.560;8.244;2023-04-24T05:04:15;3.20;;;3.10;;
16294;SDS011;8255;49.560;8.244;2023-04-24T05:06:42;3.25;;;3.05;;
16294;SDS011;8255;49.560;8.244;2023-04-24T05:09:09;2.92;;;2.83;;
16294;SDS011;8255;49.560;8.244;2023-04-24T05:11:52;3.05;;;2.95;;
16294;SDS011;8255;49.560;8.244;2023-04-24T05:14:19;3.22;;;3.13;;
16294;SDS011;8255;49.560;8.244;2023-04-24T05:16:49;3.55;;;3.35;;
16294;SDS011;8255;49.560;8.244;2023-04-24T05:19:18;4.43;;;4.03;;
16294;SDS011;8255;49.560;8.244;2023-04-24T05:21:45;3.70;;;3.50;;
16294;SDS011;8255;49.560;8.244;2023-04-24T05:24:11;3.78;;;3.30;;
16294;SDS011;8255;49.560;8.244;2023-04-24T05:26:58;3.33;;;3.13;;
16294;SDS011;8255;49.560;8.244;2023-04-24T05:29:30;3.55;;;3.35;;
16294;SDS011;8255;49.560;8.244;2023-04-24T05:31:58;4.95;;;3.15;;
16294;SDS011;8255;49.560;8.244;2023-04-24T05:34:25;3.72;;;3.45;;
16294;SDS011;8255;49.560;8.244;2023-04-24T05:36:54;3.83;;;3.55;;
16294;SDS011;8255;49.560;8.244;2023-04-24T05:39:21;3.70;;;3.40;;
16294;SDS011;8255;49.560;8.244;2023-04-24T05:41:47;4.15;;;3.75;;
16294;SDS011;8255;49.560;8.244;2023-04-24T05:44:14;3.70;;;3.50;;
16294;SDS011;8255;49.560;8.244;2023-04-24T05:46:41;4.00;;;3.70;;
16294;SDS011;8255;49.560;8.244;2023-04-24T05:49:10;4.97;;;4.13;;
16294;SDS011;8255;49.560;8.244;2023-04-24T05:51:36;5.05;;;4.68;;
16294;SDS011;8255;49.560;8.244;2023-04-24T05:54:04;4.90;;;4.40;;
16294;SDS011;8255;49.560;8.244;2023-04-24T05:56:31;4.45;;;4.15;;
16294;SDS011;8255;49.560;8.244;2023-04-24T05:58:59;4.60;;;4.25;;
16294;SDS011;8255;49.560;8.244;2023-04-24T06:01:26;4.50;;;4.20;;
16294;SDS011;8255;49.560;8.244;2023-04-24T06:04:03;4.80;;;4.43;;
16294;SDS011;8255;49.560;8.244;2023-04-24T06:06:31;4.40;;;4.10;;
16294;SDS011;8255;49.560;8.244;2023-04-24T06:08:57;5.07;;;4.55;;
16294;SDS011;8255;49.560;8.244;2023-04-24T06:11:25;4.93;;;4.57;;
16294;SDS011;8255;49.560;8.244;2023-04-24T06:13:52;6.30;;;5.70;;
16294;SDS011;8255;49.560;8.244;2023-04-24T06:16:50;3.72;;;3.42;;
16294;SDS011;8255;49.560;8.244;2023-04-24T06:19:29;4.72;;;3.90;;
16294;SDS011;8255;49.560;8.244;2023-04-24T06:21:57;4.05;;;3.85;;
16294;SDS011;8255;49.560;8.244;2023-04-24T06:24:26;4.35;;;3.88;;
16294;SDS011;8255;49.560;8.244;2023-04-24T06:26:53;4.10;;;3.70;;
16294;SDS011;8255;49.560;8.244;2023-04-24T06:29:19;4.03;;;3.65;;
16294;SDS011;8255;49.560;8.244;2023-04-24T06:31:46;4.00;;;3.63;;
16294;SDS011;8255;49.560;8.244;2023-04-24T06:34:12;5.78;;;3.75;;
16294;SDS011;8255;49.560;8.244;2023-04-24T06:36:39;3.97;;;3.67;;
16294;SDS011;8255;49.560;8.244;2023-04-24T06:39:07;3.33;;;3.13;;
16294;SDS011;8255;49.560;8.244;2023-04-24T06:41:33;4.90;;;3.55;;
16294;SDS011;8255;49.560;8.244;2023-04-24T06:43:59;3.50;;;3.20;;
16294;SDS011;8255;49.560;8.244;2023-04-24T06:46:26;3.50;;;3.20;;
16294;SDS011;8255;49.560;8.244;2023-04-24T06:48:52;3.30;;;3.10;;
16294;SDS011;8255;49.560;8.244;2023-04-24T06:51:21;4.63;;;3.20;;
16294;SDS011;8255;49.560;8.244;2023-04-24T06:53:47;2.97;;;2.88;;
16294;SDS011;8255;49.560;8.244;2023-04-24T06:56:16;3.13;;;2.83;;
16294;SDS011;8255;49.560;8.244;2023-04-24T06:58:42;2.95;;;2.75;;
16294;SDS011;8255;49.560;8.244;2023-04-24T07:01:10;2.70;;;2.50;;
16294;SDS011;8255;49.560;8.244;2023-04-24T07:03:36;3.33;;;2.80;;
16294;SDS011;8255;49.560;8.244;2023-04-24T07:06:03;2.83;;;2.63;;
16294;SDS011;8255;49.560;8.244;2023-04-24T07:08:29;2.75;;;2.53;;
16294;SDS011;8255;49.560;8.244;2023-04-24T07:10:57;1.98;;;1.85;;
16294;SDS011;8255;49.560;8.244;2023-04-24T07:13:24;2.50;;;2.30;;
16294;SDS011;8255;49.560;8.244;2023-04-24T07:15:51;2.22;;;2.10;;
16294;SDS011;8255;49.560;8.244;2023-04-24T07:18:19;2.47;;;2.30;;
16294;SDS011;8255;49.560;8.244;2023-04-24T07:20:46;1.98;;;1.88;;
16294;SDS011;8255;49.560;8.244;2023-04-24T07:23:12;2.08;;;1.67;;
16294;SDS011;8255;49.560;8.244;2023-04-24T07:25:39;2.33;;;2.13;;
16294;SDS011;8255;49.560;8.244;2023-04-24T07:28:05;2.30;;;2.15;;
16294;SDS011;8255;49.560;8.244;2023-04-24T07:30:33;2.20;;;2.00;;
16294;SDS011;8255;49.560;8.244;2023-04-24T07:33:00;2.35;;;2.25;;
16294;SDS011;8255;49.560;8.244;2023-04-24T07:35:26;2.42;;;2.33;;
16294;SDS011;8255;49.560;8.244;2023-04-24T07:37:53;3.72;;;2.72;;
16294;SDS011;8255;49.560;8.244;2023-04-24T07:40:19;1.98;;;1.98;;
16294;SDS011;8255;49.560;8.244;2023-04-24T07:42:46;2.53;;;2.40;;
16294;SDS011;8255;49.560;8.244;2023-04-24T07:45:13;4.05;;;1.75;;
16294;SDS011;8255;49.560;8.244;2023-04-24T07:47:42;1.95;;;1.85;;
16294;SDS011;8255;49.560;8.244;2023-04-24T07:50:10;2.13;;;2.00;;
16294;SDS011;8255;49.560;8.244;2023-04-24T07:52:37;5.45;;;2.08;;
16294;SDS011;8255;49.560;8.244;2023-04-24T07:55:03;2.30;;;2.20;;
16294;SDS011;8255;49.560;8.244;2023-04-24T07:57:30;3.17;;;2.08;;
16294;SDS011;8255;49.560;8.244;2023-04-24T07:59:56;1.70;;;1.70;;
16294;SDS011;8255;49.560;8.244;2023-04-24T08:02:23;2.38;;;1.95;;
16294;SDS011;8255;49.560;8.244;2023-04-24T08:04:53;1.60;;;1.60;;
16294;SDS011;8255;49.560;8.244;2023-04-24T08:07:20;1.80;;;1.70;;
16294;SDS011;8255;49.560;8.244;2023-04-24T08:09:46;2.00;;;1.90;;
16294;SDS011;8255;49.560;8.244;2023-04-24T08:12:13;2.88;;;2.30;;
16294;SDS011;8255;49.560;8.244;2023-04-24T08:14:39;2.45;;;2.28;;
16294;SDS011;8255;49.560;8.244;2023-04-24T08:17:05;2.20;;;2.10;;
16294;SDS011;8255;49.560;8.244;2023-04-24T08:19:32;2.22;;;2.13;;
16294;SDS011;8255;49.560;8.244;2023-04-24T08:21:59;1.80;;;1.70;;
16294;SDS011;8255;49.560;8.244;2023-04-24T08:24:26;2.47;;;2.38;;
16294;SDS011;8255;49.560;8.244;2023-04-24T08:26:52;2.53;;;2.33;;
16294;SDS011;8255;49.560;8.244;2023-04-24T08:29:21;2.53;;;2.40;;
16294;SDS011;8255;49.560;8.244;2023-04-24T08:31:48;2.33;;;2.22;;
16294;SDS011;8255;49.560;8.244;2023-04-24T08:34:14;2.22;;;2.13;;
16294;SDS011;8255;49.560;8.244;2023-04-24T08:36:41;2.75;;;2.50;;
16294;SDS011;8255;49.560;8.244;2023-04-24T08:39:08;3.38;;;3.15;;
16294;SDS011;8255;49.560;8.244;2023-04-24T08:41:35;4.93;;;4.53;;
16294;SDS011;8255;49.560;8.244;2023-04-24T08:44:03;4.22;;;3.05;;
16294;SDS011;8255;49.560;8.244;2023-04-24T08:46:29;2.50;;;2.40;;
16294;SDS011;8255;49.560;8.244;2023-04-24T08:48:56;2.67;;;2.58;;
16294;SDS011;8255;49.560;8.244;2023-04-24T08:51:22;2.80;;;2.47;;
16294;SDS011;8255;49.560;8.244;2023-04-24T08:53:51;2.80;;;2.70;;
16294;SDS011;8255;49.560;8.244;2023-04-24T08:56:19;2.25;;;2.13;;
16294;SDS011;8255;49.560;8.244;2023-04-24T08:58:46;2.38;;;2.28;;
16294;SDS011;8255;49.560;8.244;2023-04-24T09:01:13;2.35;;;2.25;;
16294;SDS011;8255;49.560;8.244;2023-04-24T09:03:39;2.30;;;2.20;;
16294;SDS011;8255;49.560;8.244;2023-04-24T09:06:06;2.70;;;2.50;;
16294;SDS011;8255;49.560;8.244;2023-04-24T09:08:33;2.70;;;2.60;;
16294;SDS011;8255;49.560;8.244;2023-04-24T09:10:59;2.80;;;2.33;;
16294;SDS011;8255;49.560;8.244;2023-04-24T09:13:29;2.70;;;2.50;;
16294;SDS011;8255;49.560;8.244;2023-04-24T09:15:56;2.50;;;2.40;;
16294;SDS011;8255;49.560;8.244;2023-04-24T09:18:23;2.50;;;2.40;;
16294;SDS011;8255;49.560;8.244;2023-04-24T09:21:00;2.17;;;2.08;;
16294;SDS011;8255;49.560;8.244;2023-04-24T09:23:27;2.60;;;2.40;;
16294;SDS011;8255;49.560;8.244;2023-04-24T09:25:54;2.72;;;2.50;;
16294;SDS011;8255;49.560;8.244;2023-04-24T09:28:25;3.17;;;2.83;;
16294;SDS011;8255;49.560;8.244;2023-04-24T09:31:02;6.13;;;3.17;;
16294;SDS011;8255;49.560;8.244;2023-04-24T09:33:29;2.85;;;2.65;;
16294;SDS011;8255;49.560;8.244;2023-04-24T09:35:55;3.53;;;2.50;;
16294;SDS011;8255;49.560;8.244;2023-04-24T09:38:29;2.42;;;2.33;;
16294;SDS011;8255;49.560;8.244;2023-04-24T09:40:58;2.70;;;2.53;;
16294;SDS011;8255;49.560;8.244;2023-04-24T09:43:25;3.00;;;2.40;;
16294;SDS011;8255;49.560;8.244;2023-04-24T09:45:53;2.58;;;2.40;;
16294;SDS011;8255;49.560;8.244;2023-04-24T09:48:30;2.17;;;2.08;;
16294;SDS011;8255;49.560;8.244;2023-04-24T09:50:57;2.47;;;2.38;;
16294;SDS011;8255;49.560;8.244;2023-04-24T09:53:23;3.00;;;2.42;;
16294;SDS011;8255;49.560;8.244;2023-04-24T09:55:50;2.25;;;2.15;;
16294;SDS011;8255;49.560;8.244;2023-04-24T09:58:18;3.15;;;2.42;;
16294;SDS011;8255;49.560;8.244;2023-04-24T10:00:44;2.13;;;1.85;;
16294;SDS011;8255;49.560;8.244;2023-04-24T10:03:11;2.05;;;1.95;;
16294;SDS011;8255;49.560;8.244;2023-04-24T10:05:39;2.05;;;1.95;;
16294;SDS011;8255;49.560;8.244;2023-04-24T10:08:06;1.80;;;1.70;;
16294;SDS011;8255;49.560;8.244;2023-04-24T10:10:33;2.58;;;2.47;;
16294;SDS011;8255;49.560;8.244;2023-04-24T10:13:00;2.63;;;2.45;;
16294;SDS011;8255;49.560;8.244;2023-04-24T10:15:27;2.03;;;1.92;;
16294;SDS011;8255;49.560;8.244;2023-04-24T10:17:53;2.95;;;2.35;;
16294;SDS011;8255;49.560;8.244;2023-04-24T10:20:20;2.42;;;2.33;;
16294;SDS011;8255;49.560;8.244;2023-04-24T10:22:49;3.95;;;2.90;;
16294;SDS011;8255;49.560;8.244;2023-04-24T10:25:19;2.72;;;2.50;;
16294;SDS011;8255;49.560;8.244;2023-04-24T10:27:47;2.90;;;2.70;;
16294;SDS011;8255;49.560;8.244;2023-04-24T10:30:13;2.78;;;2.53;;
16294;SDS011;8255;49.560;8.244;2023-04-24T10:32:40;2.47;;;2.38;;
16294;SDS011;8255;49.560;8.244;2023-04-24T10:35:07;3.28;;;2.60;;
16294;SDS011;8255;49.560;8.244;2023-04-24T10:37:34;3.42;;;2.85;;
16294;SDS011;8255;49.560;8.244;2023-04-24T10:40:03;2.83;;;2.72;;
16294;SDS011;8255;49.560;8.244;2023-04-24T10:42:30;2.53;;;2.33;;
16294;SDS011;8255;49.560;8.244;2023-04-24T10:44:57;2.45;;;2.25;;
16294;SDS011;8255;49.560;8.244;2023-04-24T10:47:23;3.15;;;2.95;;
16294;SDS011;8255;49.560;8.244;2023-04-24T10:49:50;4.40;;;2.88;;
16294;SDS011;8255;49.560;8.244;2023-04-24T10:52:17;2.63;;;2.42;;
16294;SDS011;8255;49.560;8.244;2023-04-24T10:54:44;2.78;;;2.58;;
16294;SDS011;8255;49.560;8.244;2023-04-24T10:57:27;2.55;;;2.45;;
16294;SDS011;8255;49.560;8.244;2023-04-24T11:00:12;3.50;;;2.63;;
16294;SDS011;8255;49.560;8.244;2023-04-24T11:02:39;3.35;;;3.03;;
16294;SDS011;8255;49.560;8.244;2023-04-24T11:05:14;4.35;;;2.75;;
16294;SDS011;8255;49.560;8.244;2023-04-24T11:10:25;3.00;;;2.80;;
16294;SDS011;8255;49.560;8.244;2023-04-24T11:12:53;2.63;;;2.38;;
16294;SDS011;8255;49.560;8.244;2023-04-24T11:15:19;3.10;;;2.80;;
16294;SDS011;8255;49.560;8.244;2023-04-24T11:17:46;3.70;;;3.20;;
16294;SDS011;8255;49.560;8.244;2023-04-24T11:20:16;3.47;;;2.92;;
16294;SDS011;8255;49.560;8.244;2023-04-24T11:22:43;4.22;;;3.72;;
16294;SDS011;8255;49.560;8.244;2023-04-24T11:25:09;3.92;;;3.63;;
16294;SDS011;8255;49.560;8.244;2023-04-24T11:27:39;2.92;;;2.72;;
16294;SDS011;8255;49.560;8.244;2023-04-24T11:30:07;2.50;;;2.25;;
16294;SDS011;8255;49.560;8.244;2023-04-24T11:32:35;3.53;;;3.00;;
16294;SDS011;8255;49.560;8.244;2023-04-24T11:35:02;4.15;;;2.17;;
16294;SDS011;8255;49.560;8.244;2023-04-24T11:37:33;3.05;;;2.85;;
16294;SDS011;8255;49.560;8.244;2023-04-24T11:40:00;3.20;;;3.00;;
16294;SDS011;8255;49.560;8.244;2023-04-24T11:42:26;3.67;;;3.38;;
16294;SDS011;8255;49.560;8.244;2023-04-24T11:44:54;3.67;;;3.30;;
16294;SDS011;8255;49.560;8.244;2023-04-24T11:47:28;3.20;;;2.90;;
16294;SDS011;8255;49.560;8.244;2023-04-24T11:49:55;2.65;;;2.53;;
16294;SDS011;8255;49.560;8.244;2023-04-24T11:52:21;2.85;;;2.55;;
16294;SDS011;8255;49.560;8.244;2023-04-24T11:54:48;3.42;;;3.15;;
16294;SDS011;8255;49.560;8.244;2023-04-24T11:57:15;3.33;;;3.13;;
16294;SDS011;8255;49.560;8.244;2023-04-24T11:59:44;3.30;;;3.10;;
16294;SDS011;8255;49.560;8.244;2023-04-24T12:02:19;3.38;;;3.17;;
16294;SDS011;8255;49.560;8.244;2023-04-24T12:04:47;3.47;;;3.13;;
16294;SDS011;8255;49.560;8.244;2023-04-24T12:07:13;3.35;;;2.92;;
16294;SDS011;8255;49.560;8.244;2023-04-24T12:09:40;3.05;;;2.85;;
16294;SDS011;8255;49.560;8.244;2023-04-24T12:12:07;3.22;;;3.03;;
16294;SDS011;8255;49.560;8.244;2023-04-24T12:14:41;3.63;;;3.30;;
16294;SDS011;8255;49.560;8.244;2023-04-24T12:17:07;3.47;;;3.28;;
16294;SDS011;8255;49.560;8.244;2023-04-24T12:19:34;3.10;;;2.90;;
16294;SDS011;8255;49.560;8.244;2023-04-24T12:22:02;3.50;;;2.17;;
16294;SDS011;8255;49.560;8.244;2023-04-24T12:24:30;3.50;;;2.88;;
16294;SDS011;8255;49.560;8.244;2023-04-24T12:26:56;5.50;;;5.00;;
16294;SDS011;8255;49.560;8.244;2023-04-24T12:29:23;4.18;;;3.70;;
16294;SDS011;8255;49.560;8.244;2023-04-24T12:31:49;3.70;;;2.97;;
16294;SDS011;8255;49.560;8.244;2023-04-24T12:34:19;3.58;;;3.25;;
16294;SDS011;8255;49.560;8.244;2023-04-24T12:36:46;4.32;;;2.95;;
16294;SDS011;8255;49.560;8.244;2023-04-24T12:39:17;3.55;;;3.25;;
16294;SDS011;8255;49.560;8.244;2023-04-24T12:41:50;2.75;;;2.55;;
16294;SDS011;8255;49.560;8.244;2023-04-24T12:44:17;3.00;;;2.80;;
16294;SDS011;8255;49.560;8.244;2023-04-24T12:46:43;3.45;;;3.05;;
16294;SDS011;8255;49.560;8.244;2023-04-24T12:49:10;3.70;;;2.88;;
16294;SDS011;8255;49.560;8.244;2023-04-24T12:51:36;2.80;;;2.60;;
16294;SDS011;8255;49.560;8.244;2023-04-24T12:54:03;3.03;;;2.83;;
16294;SDS011;8255;49.560;8.244;2023-04-24T12:56:30;2.97;;;2.88;;
16294;SDS011;8255;49.560;8.244;2023-04-24T12:58:57;3.78;;;3.20;;
16294;SDS011;8255;49.560;8.244;2023-04-24T13:01:23;3.00;;;2.67;;
16294;SDS011;8255;49.560;8.244;2023-04-24T13:03:50;3.15;;;2.63;;
16294;SDS011;8255;49.560;8.244;2023-04-24T13:06:16;3.42;;;3.15;;
16294;SDS011;8255;49.560;8.244;2023-04-24T13:08:42;2.97;;;2.70;;
16294;SDS011;8255;49.560;8.244;2023-04-24T13:11:09;3.40;;;3.20;;
16294;SDS011;8255;49.560;8.244;2023-04-24T13:13:36;5.57;;;3.58;;
16294;SDS011;8255;49.560;8.244;2023-04-24T13:16:03;5.95;;;5.45;;
16294;SDS011;8255;49.560;8.244;2023-04-24T13:18:30;4.40;;;4.00;;
16294;SDS011;8255;49.560;8.244;2023-04-24T13:20:56;5.65;;;5.18;;
16294;SDS011;8255;49.560;8.244;2023-04-24T13:23:22;7.20;;;6.47;;
16294;SDS011;8255;49.560;8.244;2023-04-24T13:25:49;12.38;;;9.60;;
16294;SDS011;8255;49.560;8.244;2023-04-24T13:28:15;8.68;;;7.75;;
16294;SDS011;8255;49.560;8.244;2023-04-24T13:30:43;3.67;;;3.20;;
16294;SDS011;8255;49.560;8.244;2023-04-24T13:33:09;4.05;;;2.90;;
16294;SDS011;8255;49.560;8.244;2023-04-24T13:35:36;3.08;;;2.80;;
16294;SDS011;8255;49.560;8.244;2023-04-24T13:38:02;3.78;;;2.78;;
16294;SDS011;8255;49.560;8.244;2023-04-24T13:40:31;3.65;;;3.10;;
16294;SDS011;8255;49.560;8.244;2023-04-24T13:42:57;3.10;;;2.90;;
16294;SDS011;8255;49.560;8.244;2023-04-24T13:45:23;2.90;;;2.70;;
16294;SDS011;8255;49.560;8.244;2023-04-24T13:47:51;3.10;;;2.90;;
16294;SDS011;8255;49.560;8.244;2023-04-24T13:50:18;3.08;;;2.88;;
16294;SDS011;8255;49.560;8.244;2023-04-24T13:52:45;3.33;;;3.10;;
16294;SDS011;8255;49.560;8.244;2023-04-24T13:55:11;3.15;;;2.95;;
16294;SDS011;8255;49.560;8.244;2023-04-24T13:57:38;3.55;;;3.20;;
16294;SDS011;8255;49.560;8.244;2023-04-24T14:00:05;3.65;;;3.40;;
16294;SDS011;8255;49.560;8.244;2023-04-24T14:02:35;3.40;;;3.20;;
16294;SDS011;8255;49.560;8.244;2023-04-24T14:05:03;3.20;;;2.90;;
16294;SDS011;8255;49.560;8.244;2023-04-24T14:07:30;3.17;;;2.97;;
16294;SDS011;8255;49.560;8.244;2023-04-24T14:09:56;3.33;;;3.10;;
16294;SDS011;8255;49.560;8.244;2023-04-24T14:12:23;3.22;;;3.03;;
16294;SDS011;8255;49.560;8.244;2023-04-24T14:14:49;2.75;;;2.58;;
16294;SDS011;8255;49.560;8.244;2023-04-24T14:17:16;2.83;;;2.63;;
16294;SDS011;8255;49.560;8.244;2023-04-24T14:19:42;2.80;;;2.70;;
16294;SDS011;8255;49.560;8.244;2023-04-24T14:22:10;2.53;;;2.42;;
16294;SDS011;8255;49.560;8.244;2023-04-24T14:24:37;3.38;;;2.67;;
16294;SDS011;8255;49.560;8.244;2023-04-24T14:27:03;3.08;;;2.88;;
16294;SDS011;8255;49.560;8.244;2023-04-24T14:29:30;2.72;;;2.53;;
16294;SDS011;8255;49.560;8.244;2023-04-24T14:31:56;2.78;;;2.58;;
16294;SDS011;8255;49.560;8.244;2023-04-24T14:34:22;2.90;;;2.80;;
16294;SDS011;8255;49.560;8.244;2023-04-24T14:36:49;2.92;;;2.70;;
16294;SDS011;8255;49.560;8.244;2023-04-24T14:39:16;3.15;;;2.95;;
16294;SDS011;8255;49.560;8.244;2023-04-24T14:41:43;4.40;;;3.30;;
16294;SDS011;8255;49.560;8.244;2023-04-24T14:44:09;3.78;;;3.05;;
16294;SDS011;8255;49.560;8.244;2023-04-24T14:46:35;3.33;;;3.13;;
16294;SDS011;8255;49.560;8.244;2023-04-24T14:49:02;2.63;;;2.53;;
16294;SDS011;8255;49.560;8.244;2023-04-24T14:51:28;4.13;;;3.00;;
16294;SDS011;8255;49.560;8.244;2023-04-24T14:53:55;3.47;;;2.95;;
16294;SDS011;8255;49.560;8.244;2023-04-24T14:56:24;3.22;;;3.03;;
16294;SDS011;8255;49.560;8.244;2023-04-24T14:58:50;3.35;;;3.15;;
16294;SDS011;8255;49.560;8.244;2023-04-24T15:01:17;3.15;;;2.95;;
16294;SDS011;8255;49.560;8.244;2023-04-24T15:03:43;3.53;;;3.30;;
16294;SDS011;8255;49.560;8.244;2023-04-24T15:06:10;3.42;;;2.85;;